Time;durP1;ratioP1;P1;durP2;ratioP2;P2;SDS_P1;SDS_P2;PMS_P1;PMS_P2;Temp;Humidity;BMP_temperature;BMP_pressure;BME280_temperature;BME280_humidity;BME280_pressure;Samples;Min_cycle;Max_cycle;Signal;HPM_P1;HPM_P2
2021/07/24 00:00:24;;;;;;;16.52;10.95;;;16.70;99.90;;;;;;5113791;28;20048;-58
2021/07/24 00:02:49;;;;;;;13.82;10.77;;;16.70;99.90;;;;;;5113465;28;20031;-58
2021/07/24 00:05:15;;;;;;;18.17;11.30;;;16.70;99.90;;;;;;5113469;28;20043;-58
2021/07/24 00:07:41;;;;;;;13.27;10.40;;;16.60;99.90;;;;;;5113364;28;20529;-58
2021/07/24 00:10:07;;;;;;;15.75;11.43;;;16.60;99.90;;;;;;5113145;28;20043;-58
2021/07/24 00:12:34;;;;;;;15.23;10.30;;;16.60;99.90;;;;;;5113138;28;20090;-58
2021/07/24 00:14:59;;;;;;;12.18;10.63;;;16.60;99.90;;;;;;5113413;28;20044;-58
2021/07/24 00:17:26;;;;;;;16.38;11.15;;;16.50;99.90;;;;;;5113284;28;20035;-58
2021/07/24 00:19:52;;;;;;;14.98;10.45;;;16.50;99.90;;;;;;5113225;28;20044;-58
2021/07/24 00:22:17;;;;;;;13.93;10.52;;;16.50;99.90;;;;;;5112998;28;20043;-58
2021/07/24 00:24:43;;;;;;;14.98;11.57;;;16.50;99.90;;;;;;5112930;28;20048;-58
2021/07/24 00:27:09;;;;;;;14.07;10.98;;;16.40;99.90;;;;;;5112955;28;20074;-58
2021/07/24 00:29:36;;;;;;;16.80;11.00;;;16.40;99.90;;;;;;5113293;28;20047;-58
2021/07/24 00:32:03;;;;;;;15.45;11.25;;;16.40;99.90;;;;;;5113049;28;20048;-58
2021/07/24 00:34:29;;;;;;;16.95;10.40;;;16.40;99.90;;;;;;5094352;28;20051;-58
2021/07/24 00:36:56;;;;;;;16.33;11.63;;;16.40;99.90;;;;;;5113235;28;20044;-58
2021/07/24 00:39:22;;;;;;;15.60;10.90;;;16.40;99.90;;;;;;5113081;28;20051;-58
2021/07/24 00:41:52;;;;;;;14.55;10.98;;;16.40;99.90;;;;;;5112682;28;20043;-58
2021/07/24 00:44:20;;;;;;;14.32;10.18;;;16.40;99.90;;;;;;5113019;28;20465;-58
2021/07/24 00:46:47;;;;;;;15.93;11.23;;;16.30;99.90;;;;;;5112924;28;20052;-59
2021/07/24 00:49:13;;;;;;;17.77;10.52;;;16.20;99.90;;;;;;5112704;28;20118;-58
2021/07/24 00:51:44;;;;;;;15.25;11.43;;;16.20;99.90;;;;;;5112483;28;20078;-58
2021/07/24 00:54:10;;;;;;;17.77;11.85;;;16.30;99.90;;;;;;5112540;28;20573;-59
2021/07/24 00:56:38;;;;;;;16.42;10.63;;;16.20;99.90;;;;;;5112317;28;20126;-58
2021/07/24 00:59:04;;;;;;;17.15;11.32;;;16.20;99.90;;;;;;5112732;28;20448;-58
2021/07/24 01:01:30;;;;;;;16.67;10.77;;;16.20;99.90;;;;;;5112469;28;20075;-58
2021/07/24 01:03:55;;;;;;;15.27;11.25;;;16.20;99.90;;;;;;5112381;28;20089;-58
2021/07/24 01:06:22;;;;;;;18.67;11.52;;;16.10;99.90;;;;;;5112419;28;20067;-58
2021/07/24 01:08:48;;;;;;;16.73;11.05;;;16.20;99.90;;;;;;5112410;28;20036;-58
2021/07/24 01:11:15;;;;;;;17.27;11.10;;;16.10;99.90;;;;;;5112517;28;20043;-58
2021/07/24 01:13:42;;;;;;;14.13;11.35;;;16.10;99.90;;;;;;5112519;28;20048;-58
2021/07/24 01:16:09;;;;;;;15.65;11.23;;;16.00;99.90;;;;;;5112670;28;20051;-58
2021/07/24 01:18:35;;;;;;;16.05;10.70;;;15.90;99.90;;;;;;5112466;28;20537;-58
2021/07/24 01:21:07;;;;;;;17.83;10.85;;;16.00;99.90;;;;;;5112554;28;20090;-58
2021/07/24 01:23:33;;;;;;;12.90;10.82;;;16.00;99.90;;;;;;5112276;28;20035;-58
2021/07/24 01:25:59;;;;;;;15.82;11.57;;;16.00;99.90;;;;;;5112376;28;20119;-59
2021/07/24 01:28:30;;;;;;;15.07;12.32;;;15.90;99.90;;;;;;5112281;28;20061;-59
2021/07/24 01:30:57;;;;;;;15.45;11.23;;;15.90;99.90;;;;;;5112205;28;20465;-58
2021/07/24 01:33:22;;;;;;;19.33;12.82;;;15.90;99.90;;;;;;5112195;28;20119;-58
2021/07/24 01:35:49;;;;;;;18.20;11.52;;;15.80;99.90;;;;;;5112014;28;20126;-58
2021/07/24 01:38:16;;;;;;;16.08;11.02;;;15.80;99.90;;;;;;5112048;28;20036;-58
2021/07/24 01:40:43;;;;;;;16.27;11.50;;;15.70;99.90;;;;;;5112110;28;20043;-58
2021/07/24 01:43:09;;;;;;;17.88;12.57;;;15.70;99.90;;;;;;5112174;28;20052;-58
2021/07/24 01:45:36;;;;;;;19.08;12.15;;;15.70;99.90;;;;;;5112205;28;20048;-58
2021/07/24 01:48:05;;;;;;;17.00;11.82;;;15.70;99.90;;;;;;5112092;28;20032;-58
2021/07/24 01:53:18;;;;;;;17.95;11.85;;;15.70;99.90;;;;;;5029207;28;20072;-58
2021/07/24 01:55:53;;;;;;;17.00;12.23;;;15.60;99.90;;;;;;5029403;28;20068;-58
2021/07/24 01:58:34;;;;;;;15.85;12.23;;;15.60;99.90;;;;;;5012811;28;20045;-58
2021/07/24 02:01:02;;;;;;;17.90;13.25;;;15.60;99.90;;;;;;5029390;28;20169;-58
2021/07/24 02:03:35;;;;;;;16.53;11.57;;;15.50;99.90;;;;;;5029319;28;20053;-58
2021/07/24 02:06:02;;;;;;;20.80;11.48;;;15.50;99.90;;;;;;5029237;28;20569;-58
2021/07/24 02:08:29;;;;;;;18.40;12.60;;;15.40;99.90;;;;;;5029124;28;20095;-58
2021/07/24 02:10:55;;;;;;;21.52;13.02;;;15.50;99.90;;;;;;5029213;28;20077;-58
2021/07/24 02:13:21;;;;;;;17.90;11.88;;;15.50;99.90;;;;;;5031587;28;20045;-58
2021/07/24 02:15:47;;;;;;;18.42;12.63;;;15.50;99.90;;;;;;5032858;28;20498;-58
2021/07/24 02:18:17;;;;;;;21.98;13.65;;;15.40;99.90;;;;;;5032687;28;20052;-58
2021/07/24 02:20:45;;;;;;;15.48;12.02;;;15.40;99.90;;;;;;5032764;28;20165;-58
2021/07/24 02:23:11;;;;;;;16.55;11.23;;;15.30;99.90;;;;;;5032655;28;20188;-58
2021/07/24 02:25:37;;;;;;;17.55;11.32;;;15.30;99.90;;;;;;5032679;28;20049;-58
2021/07/24 02:28:03;;;;;;;17.83;10.98;;;15.20;99.90;;;;;;5032684;28;20107;-58
2021/07/24 02:30:28;;;;;;;17.13;13.48;;;15.30;99.90;;;;;;5072116;28;20043;-58
2021/07/24 02:32:54;;;;;;;19.75;12.10;;;15.20;99.90;;;;;;5115395;28;20046;-58
2021/07/24 02:35:20;;;;;;;21.05;12.98;;;15.20;99.90;;;;;;5115168;28;20066;-58
2021/07/24 02:37:45;;;;;;;15.57;11.50;;;15.20;99.90;;;;;;5115123;28;20031;-58
2021/07/24 02:40:11;;;;;;;17.33;13.55;;;15.20;99.90;;;;;;5115017;28;20047;-58
2021/07/24 02:42:37;;;;;;;18.63;12.52;;;15.20;99.90;;;;;;5114833;28;20455;-58
2021/07/24 02:45:04;;;;;;;18.58;13.70;;;15.20;99.90;;;;;;5115066;28;20039;-59
2021/07/24 02:47:31;;;;;;;16.92;13.82;;;15.10;99.90;;;;;;5115089;28;20043;-59
2021/07/24 02:49:56;;;;;;;18.27;14.25;;;15.20;99.90;;;;;;5115057;28;20485;-58
2021/07/24 02:52:22;;;;;;;21.63;13.75;;;15.10;99.90;;;;;;5115089;28;20051;-58
2021/07/24 02:54:48;;;;;;;22.42;14.75;;;15.20;99.90;;;;;;5114919;28;20039;-58
2021/07/24 02:57:14;;;;;;;18.80;13.57;;;15.10;99.90;;;;;;5114779;28;20134;-57
2021/07/24 02:59:39;;;;;;;17.50;13.05;;;15.10;99.90;;;;;;5114753;28;20063;-59
2021/07/24 03:02:05;;;;;;;22.23;13.30;;;15.10;99.90;;;;;;5114765;28;20042;-58
2021/07/24 03:04:31;;;;;;;20.80;12.90;;;15.10;99.90;;;;;;5114707;28;20043;-58
2021/07/24 03:06:58;;;;;;;21.65;13.05;;;15.10;99.90;;;;;;5114528;28;20412;-58
2021/07/24 03:09:24;;;;;;;21.23;13.77;;;15.10;99.90;;;;;;5114589;28;20039;-58
2021/07/24 03:11:50;;;;;;;19.20;12.55;;;15.10;99.90;;;;;;5114375;28;20052;-58
2021/07/24 03:14:15;;;;;;;16.67;12.60;;;15.10;99.90;;;;;;5114593;28;20135;-58
2021/07/24 03:16:42;;;;;;;17.67;12.43;;;15.10;99.90;;;;;;5114436;28;20051;-58
2021/07/24 03:19:08;;;;;;;16.13;12.73;;;15.10;99.90;;;;;;5114568;28;20355;-57
2021/07/24 03:21:33;;;;;;;19.83;12.48;;;15.10;99.90;;;;;;5114252;28;20074;-58
2021/07/24 03:23:59;;;;;;;16.10;11.23;;;15.00;99.90;;;;;;5113052;28;20051;-58
2021/07/24 03:26:24;;;;;;;16.67;11.95;;;15.10;99.90;;;;;;5114142;28;20540;-58
2021/07/24 03:28:50;;;;;;;21.08;12.93;;;15.10;99.90;;;;;;5113990;28;20092;-58
2021/07/24 03:31:17;;;;;;;26.65;14.13;;;15.10;99.90;;;;;;5113937;28;20067;-59
2021/07/24 03:33:43;;;;;;;16.38;11.75;;;15.10;99.90;;;;;;5114028;28;20500;-58
2021/07/24 03:36:08;;;;;;;17.58;12.80;;;15.10;99.90;;;;;;5114082;28;20047;-58
2021/07/24 03:38:34;;;;;;;20.30;13.45;;;15.00;99.90;;;;;;5114218;28;20047;-58
2021/07/24 03:41:03;;;;;;;18.70;13.02;;;15.00;99.90;;;;;;5113883;28;20104;-58
2021/07/24 03:43:28;;;;;;;18.40;13.00;;;14.90;99.90;;;;;;5114137;28;20150;-59
2021/07/24 03:45:54;;;;;;;24.15;13.13;;;15.00;99.90;;;;;;5114137;28;20147;-58
2021/07/24 03:48:20;;;;;;;19.70;12.88;;;15.00;99.90;;;;;;5113715;28;20040;-58
2021/07/24 03:50:46;;;;;;;20.35;13.10;;;14.90;99.90;;;;;;5113561;28;20036;-58
2021/07/24 03:53:12;;;;;;;22.33;13.88;;;15.00;99.90;;;;;;5113670;28;20040;-57
2021/07/24 03:55:38;;;;;;;18.58;12.25;;;15.00;99.90;;;;;;5113578;28;20370;-59
2021/07/24 03:58:04;;;;;;;22.45;12.85;;;15.00;99.90;;;;;;5113714;28;20121;-58
2021/07/24 04:00:46;;;;;;;18.90;12.50;;;15.00;99.90;;;;;;5113579;28;20040;-58
2021/07/24 04:03:12;;;;;;;19.20;13.15;;;15.00;99.90;;;;;;5113456;28;20093;-58
2021/07/24 04:05:43;;;;;;;17.40;12.07;;;15.10;99.90;;;;;;5113492;28;20481;-58
2021/07/24 04:08:10;;;;;;;17.17;12.60;;;15.10;99.90;;;;;;5113326;28;20047;-58
2021/07/24 04:10:37;;;;;;;20.00;13.18;;;15.00;99.90;;;;;;5113147;28;20564;-58
2021/07/24 04:13:04;;;;;;;20.30;12.35;;;15.10;99.90;;;;;;5113288;28;20047;-58
2021/07/24 04:15:31;;;;;;;16.35;12.48;;;15.10;99.90;;;;;;5113278;28;20536;-57
2021/07/24 04:17:59;;;;;;;20.58;13.10;;;15.10;99.90;;;;;;5113258;28;20055;-59
2021/07/24 04:20:25;;;;;;;22.88;13.10;;;15.10;99.90;;;;;;5091285;28;20458;-58
2021/07/24 04:22:50;;;;;;;18.20;13.10;;;15.10;99.90;;;;;;5110145;28;20039;-58
2021/07/24 04:25:16;;;;;;;19.60;11.88;;;15.10;99.90;;;;;;5113183;28;20134;-58
2021/07/24 04:27:42;;;;;;;22.33;13.32;;;15.10;99.90;;;;;;5112960;28;20047;-58
2021/07/24 04:30:08;;;;;;;16.27;11.65;;;15.10;99.90;;;;;;5105969;28;20036;-58
2021/07/24 04:32:34;;;;;;;18.55;12.50;;;15.10;99.90;;;;;;5092544;28;20054;-61
2021/07/24 04:35:00;;;;;;;19.70;12.05;;;15.20;99.90;;;;;;5092025;28;20036;-58
2021/07/24 04:37:26;;;;;;;18.10;12.43;;;15.30;99.90;;;;;;5092581;28;20040;-58
2021/07/24 04:39:51;;;;;;;18.60;12.60;;;15.20;99.90;;;;;;5074447;28;20040;-57
2021/07/24 04:42:17;;;;;;;17.58;12.30;;;15.20;99.90;;;;;;5092328;28;20478;-58
2021/07/24 04:44:43;;;;;;;17.00;12.48;;;15.30;99.90;;;;;;5092596;28;20047;-57
2021/07/24 04:47:09;;;;;;;15.10;11.23;;;15.30;99.90;;;;;;5092467;28;20806;-58
2021/07/24 04:49:50;;;;;;;17.77;12.55;;;15.40;99.90;;;;;;5092235;28;20039;-58
2021/07/24 04:52:18;;;;;;;19.13;11.40;;;15.40;99.90;;;;;;5092297;28;20135;-59
2021/07/24 04:54:46;;;;;;;15.18;11.48;;;15.40;99.90;;;;;;5092207;28;20039;-59
2021/07/24 04:57:13;;;;;;;16.85;11.77;;;15.40;99.90;;;;;;5092346;28;20040;-58
2021/07/24 04:59:47;;;;;;;17.42;11.45;;;15.50;99.90;;;;;;5092146;28;20043;-57
2021/07/24 05:02:17;;;;;;;15.35;10.82;;;15.60;99.90;;;;;;5092430;28;20784;-58
2021/07/24 05:04:48;;;;;;;14.05;10.75;;;15.60;99.90;;;;;;5092389;28;20048;-57
2021/07/24 05:07:17;;;;;;;18.40;11.23;;;15.70;99.90;;;;;;5092235;28;20040;-58
2021/07/24 05:09:43;;;;;;;14.73;10.43;;;15.70;99.90;;;;;;5100343;28;20047;-57
2021/07/24 05:12:09;;;;;;;13.23;9.68;;;15.80;99.90;;;;;;5112265;28;20047;-58
2021/07/24 05:14:36;;;;;;;13.70;9.98;;;15.90;99.90;;;;;;5111981;28;20477;-58
2021/07/24 05:17:09;;;;;;;14.93;10.80;;;15.90;99.90;;;;;;5112230;28;20042;-57
2021/07/24 05:19:40;;;;;;;15.23;10.48;;;16.00;99.90;;;;;;5112450;28;20062;-58
2021/07/24 05:22:07;;;;;;;14.45;9.18;;;16.10;99.90;;;;;;5112252;28;20043;-58
2021/07/24 05:24:33;;;;;;;14.30;10.30;;;16.20;99.90;;;;;;5112277;28;20043;-58
2021/07/24 05:27:00;;;;;;;16.92;10.00;;;16.20;99.90;;;;;;5112173;28;20062;-60
2021/07/24 05:29:26;;;;;;;15.38;9.32;;;16.20;99.90;;;;;;5112077;28;20081;-59
2021/07/24 05:31:51;;;;;;;15.55;9.40;;;16.20;99.90;;;;;;5111975;28;20039;-60
2021/07/24 05:34:17;;;;;;;15.57;8.95;;;16.30;99.90;;;;;;5112157;28;20113;-58
2021/07/24 05:36:43;;;;;;;11.45;9.05;;;16.30;99.90;;;;;;5111120;28;20032;-58
2021/07/24 05:39:08;;;;;;;14.20;8.88;;;16.40;99.90;;;;;;5111884;28;20130;-58
2021/07/24 05:41:34;;;;;;;13.15;8.85;;;16.40;99.90;;;;;;5111834;28;20073;-61
2021/07/24 05:44:00;;;;;;;14.68;9.55;;;16.50;99.90;;;;;;5111750;28;20052;-60
2021/07/24 05:46:25;;;;;;;11.23;8.63;;;16.50;99.90;;;;;;5111973;28;20130;-58
2021/07/24 05:48:51;;;;;;;12.00;9.02;;;16.60;99.90;;;;;;5115426;28;20047;-58
2021/07/24 05:51:17;;;;;;;13.02;9.35;;;16.70;99.90;;;;;;5115771;28;20075;-58
2021/07/24 05:53:42;;;;;;;11.13;8.75;;;16.80;99.90;;;;;;5115784;28;20043;-57
2021/07/24 05:56:08;;;;;;;11.95;9.50;;;16.90;99.90;;;;;;5115876;28;20039;-58
2021/07/24 05:58:34;;;;;;;9.10;7.90;;;17.10;99.90;;;;;;5116063;28;20100;-58
2021/07/24 06:01:00;;;;;;;11.88;8.20;;;17.10;99.90;;;;;;5115795;28;20087;-58
2021/07/24 06:03:29;;;;;;;14.48;7.95;;;17.20;99.90;;;;;;5115872;28;20055;-57
2021/07/24 06:05:55;;;;;;;16.65;8.48;;;17.30;99.90;;;;;;5115954;28;20441;-58
2021/07/24 06:08:20;;;;;;;10.55;7.63;;;17.50;99.90;;;;;;5115684;28;20499;-57
2021/07/24 06:10:46;;;;;;;10.75;7.78;;;17.60;99.90;;;;;;5096721;28;20036;-58
2021/07/24 06:13:12;;;;;;;9.48;7.53;;;17.50;99.90;;;;;;5115307;28;20047;-58
2021/07/24 06:15:42;;;;;;;11.07;7.50;;;17.60;99.90;;;;;;5115501;28;20043;-59
2021/07/24 06:18:08;;;;;;;11.20;7.55;;;17.70;99.90;;;;;;5115247;28;20039;-58
2021/07/24 06:20:37;;;;;;;12.82;8.10;;;17.80;99.90;;;;;;5115316;28;20051;-58
2021/07/24 06:23:04;;;;;;;;;;;17.90;99.90;;;;;;5115849;28;20044;-58
2021/07/24 06:25:30;;;;;;;11.63;7.35;;;18.00;99.90;;;;;;5115215;28;19916;-58
2021/07/24 06:27:55;;;;;;;10.10;7.13;;;18.10;99.90;;;;;;5115120;28;20036;-58
2021/07/24 06:30:21;;;;;;;10.63;7.47;;;18.10;99.90;;;;;;5115162;28;20035;-59
2021/07/24 06:32:47;;;;;;;7.90;6.43;;;18.20;99.90;;;;;;5115131;28;20044;-60
2021/07/24 06:35:13;;;;;;;8.75;7.10;;;18.20;99.90;;;;;;5115082;28;20049;-60
2021/07/24 06:37:42;;;;;;;9.00;7.13;;;18.40;99.90;;;;;;5114932;28;20035;-60
2021/07/24 06:40:09;;;;;;;9.15;7.13;;;18.50;99.90;;;;;;5114817;28;20039;-57
2021/07/24 06:42:35;;;;;;;9.57;7.32;;;18.60;99.90;;;;;;5114805;28;20055;-59
2021/07/24 06:45:02;;;;;;;9.60;7.47;;;18.70;99.90;;;;;;5114933;28;20044;-58
2021/07/24 06:47:28;;;;;;;8.40;7.40;;;18.80;99.90;;;;;;5115115;28;20043;-58
2021/07/24 06:49:53;;;;;;;8.38;7.15;;;18.90;99.90;;;;;;5114659;28;20047;-60
2021/07/24 06:52:19;;;;;;;11.10;8.43;;;18.80;99.90;;;;;;5114555;28;20040;-58
2021/07/24 06:54:45;;;;;;;9.93;7.70;;;18.80;99.90;;;;;;5114606;28;20130;-59
2021/07/24 06:57:10;;;;;;;9.07;7.28;;;18.90;99.90;;;;;;5114530;28;20032;-59
2021/07/24 06:59:37;;;;;;;10.27;7.63;;;18.90;99.90;;;;;;5114378;28;20127;-58
2021/07/24 07:02:05;;;;;;;14.02;7.82;;;19.00;99.90;;;;;;5114450;28;20435;-58
2021/07/24 07:04:31;;;;;;;12.10;7.75;;;19.20;99.90;;;;;;5114462;28;20048;-58
2021/07/24 07:06:56;;;;;;;10.80;7.78;;;19.40;99.90;;;;;;5114416;28;20039;-58
2021/07/24 07:09:22;;;;;;;8.80;7.13;;;19.60;99.90;;;;;;5114165;28;20051;-58
2021/07/24 07:11:50;;;;;;;12.00;7.90;;;19.90;99.90;;;;;;5114216;28;20504;-60
2021/07/24 07:14:15;;;;;;;12.35;7.30;;;20.00;99.90;;;;;;5114293;28;20273;-59
2021/07/24 07:16:41;;;;;;;11.02;7.55;;;20.10;99.90;;;;;;5114183;28;20039;-58
2021/07/24 07:19:07;;;;;;;10.52;7.80;;;20.40;99.90;;;;;;5114294;28;20047;-58
2021/07/24 07:21:33;;;;;;;14.30;7.28;;;20.50;99.90;;;;;;5114155;28;20059;-59
2021/07/24 07:23:59;;;;;;;9.68;7.25;;;20.70;99.90;;;;;;5114214;28;20397;-58
2021/07/24 07:26:26;;;;;;;8.40;6.68;;;20.80;99.90;;;;;;5114432;28;20598;-59
2021/07/24 07:28:53;;;;;;;11.25;7.28;;;21.10;99.90;;;;;;5114453;28;20824;-58
2021/07/24 07:31:19;;;;;;;8.82;6.63;;;21.20;99.90;;;;;;5114115;28;20698;-59
2021/07/24 07:33:45;;;;;;;11.48;7.40;;;21.60;99.90;;;;;;5114205;28;20138;-58
2021/07/24 07:36:11;;;;;;;11.43;7.68;;;21.50;99.90;;;;;;5095110;28;20047;-58
2021/07/24 07:38:36;;;;;;;8.85;6.95;;;21.60;99.90;;;;;;5113634;28;20050;-59
2021/07/24 07:41:02;;;;;;;13.75;8.43;;;21.80;99.90;;;;;;5113864;28;20050;-62
2021/07/24 07:43:28;;;;;;;13.60;8.68;;;21.50;99.90;;;;;;5113847;28;20048;-58
2021/07/24 07:45:53;;;;;;;10.55;7.50;;;21.60;99.90;;;;;;5113517;28;20131;-59
2021/07/24 07:48:19;;;;;;;9.05;8.10;;;21.60;99.90;;;;;;5113655;28;20118;-58
2021/07/24 07:50:45;;;;;;;10.65;7.82;;;21.60;99.90;;;;;;5113418;28;20078;-58
2021/07/24 07:53:11;;;;;;;10.40;7.22;;;21.80;99.90;;;;;;5113483;28;20423;-58
2021/07/24 07:55:37;;;;;;;8.07;6.93;;;21.90;99.90;;;;;;5113498;28;20054;-59
2021/07/24 07:58:14;;;;;;;11.13;7.60;;;22.10;99.90;;;;;;5113487;28;20130;-58
2021/07/24 08:00:40;;;;;;;11.10;7.75;;;22.10;99.90;;;;;;5113454;28;20054;-60
2021/07/24 08:03:06;;;;;;;8.88;7.82;;;22.30;99.90;;;;;;5113237;28;20097;-58
2021/07/24 08:05:32;;;;;;;11.43;7.13;;;22.40;99.90;;;;;;5113243;28;20126;-60
2021/07/24 08:07:58;;;;;;;12.73;7.97;;;22.60;99.90;;;;;;5113242;28;20114;-59
2021/07/24 08:10:24;;;;;;;9.63;7.68;;;22.80;99.90;;;;;;5112373;28;20036;-58
2021/07/24 08:12:50;;;;;;;9.50;7.88;;;23.00;99.90;;;;;;5113094;28;20039;-58
2021/07/24 08:15:16;;;;;;;8.77;7.07;;;23.20;99.90;;;;;;5113189;28;20118;-59
2021/07/24 08:17:42;;;;;;;8.25;6.60;;;23.30;99.90;;;;;;5113078;28;20127;-59
2021/07/24 08:20:09;;;;;;;10.50;7.38;;;23.40;99.90;;;;;;5112670;28;20043;-60
2021/07/24 08:22:35;;;;;;;9.07;6.93;;;23.30;99.90;;;;;;5112973;28;20040;-59
2021/07/24 08:25:02;;;;;;;9.90;7.35;;;23.40;99.90;;;;;;5112863;28;20039;-59
2021/07/24 08:27:27;;;;;;;13.02;7.40;;;23.40;99.90;;;;;;5112873;28;20044;-59
2021/07/24 08:29:53;;;;;;;13.30;7.25;;;23.50;99.90;;;;;;5094613;28;20443;-58
2021/07/24 08:32:20;;;;;;;8.38;6.75;;;23.60;99.90;;;;;;5112615;28;20040;-59
2021/07/24 08:34:52;;;;;;;10.30;7.00;;;23.80;99.90;;;;;;5112712;28;20039;-59
2021/07/24 08:37:19;;;;;;;8.43;6.88;;;23.80;99.90;;;;;;5112619;28;20110;-59
2021/07/24 08:39:46;;;;;;;10.15;7.47;;;24.00;99.90;;;;;;5112803;28;20138;-61
2021/07/24 08:42:41;;;;;;;8.07;6.57;;;24.20;99.90;;;;;;5112398;28;20062;-60
2021/07/24 08:45:08;;;;;;;7.68;6.55;;;24.50;99.90;;;;;;5112521;28;20115;-61
2021/07/24 08:47:35;;;;;;;10.52;6.57;;;24.30;99.90;;;;;;5112494;28;20065;-60
2021/07/24 08:50:03;;;;;;;8.07;5.95;;;24.30;99.90;;;;;;5112520;28;20044;-60
2021/07/24 08:52:30;;;;;;;;;;;24.30;99.90;;;;;;5112715;28;20092;-59
2021/07/24 08:54:56;;;;;;;8.23;6.30;;;24.70;99.90;;;;;;5112412;28;20426;-59
2021/07/24 08:57:28;;;;;;;11.57;6.28;;;24.90;99.90;;;;;;5112372;28;20122;-61
2021/07/24 09:00:01;;;;;;;11.27;6.28;;;25.10;99.90;;;;;;5112591;28;20047;-59
2021/07/24 09:02:28;;;;;;;9.63;6.80;;;24.90;99.90;;;;;;5112219;28;20031;-61
2021/07/24 09:04:57;;;;;;;7.75;6.38;;;25.10;99.90;;;;;;5112292;28;20039;-60
2021/07/24 09:07:27;;;;;;;11.88;6.65;;;25.50;99.90;;;;;;5112312;28;20050;-60
2021/07/24 09:09:59;;;;;;;9.70;7.10;;;25.50;99.90;;;;;;5112142;28;20046;-60
2021/07/24 09:12:29;;;;;;;11.48;6.95;;;25.50;99.90;;;;;;5112068;28;20036;-59
2021/07/24 09:14:57;;;;;;;8.43;7.07;;;25.80;99.90;;;;;;5112345;28;20591;-59
2021/07/24 09:17:23;;;;;;;9.25;6.53;;;25.80;99.90;;;;;;5112256;28;20114;-58
2021/07/24 09:19:50;;;;;;;11.00;5.93;;;25.90;99.90;;;;;;5112381;28;20163;-61
2021/07/24 09:22:33;;;;;;;7.43;6.72;;;26.90;99.90;;;;;;5114960;28;20047;-59
2021/07/24 09:25:06;;;;;;;8.10;6.13;;;27.50;99.90;;;;;;5116548;28;20073;-59
2021/07/24 09:27:34;;;;;;;10.98;6.90;;;28.30;99.90;;;;;;5116451;28;20101;-59
2021/07/24 09:30:01;;;;;;;6.32;5.63;;;28.90;99.60;;;;;;5098422;28;20050;-59
2021/07/24 09:32:28;;;;;;;7.38;6.18;;;29.30;99.80;;;;;;5116257;28;20036;-59
2021/07/24 09:34:53;;;;;;;9.90;6.40;;;29.60;99.30;;;;;;5116240;28;20047;-59
2021/07/24 09:37:25;;;;;;;10.23;6.25;;;29.90;98.80;;;;;;5116622;28;20534;-59
2021/07/24 09:39:52;;;;;;;9.30;6.55;;;29.50;97.40;;;;;;5116066;28;20389;-59
2021/07/24 09:42:20;;;;;;;6.93;6.10;;;29.80;97.90;;;;;;5115899;28;20443;-60
2021/07/24 09:44:45;;;;;;;9.18;5.90;;;29.90;96.60;;;;;;5116066;28;20416;-60
2021/07/24 09:47:29;;;;;;;6.65;5.57;;;30.10;96.80;;;;;;5115761;28;20044;-59
2021/07/24 09:50:12;;;;;;;8.27;6.10;;;30.50;97.50;;;;;;5116401;28;20154;-61
2021/07/24 09:52:53;;;;;;;8.02;6.25;;;30.20;95.40;;;;;;5115680;28;20036;-61
2021/07/24 09:55:23;;;;;;;7.22;6.03;;;30.10;95.60;;;;;;5115764;28;20047;-60
2021/07/24 09:57:50;;;;;;;8.18;5.72;;;30.30;95.80;;;;;;5115741;28;20062;-58
2021/07/24 10:00:42;;;;;;;8.37;5.60;;;30.40;95.90;;;;;;5115573;28;20485;-61
2021/07/24 10:03:08;;;;;;;7.00;5.57;;;30.60;94.90;;;;;;5102453;28;20044;-60
2021/07/24 10:05:41;;;;;;;11.77;5.68;;;30.70;95.30;;;;;;5097471;28;20130;-62
2021/07/24 10:08:14;;;;;;;6.75;5.60;;;31.10;94.90;;;;;;5115918;28;20580;-61
2021/07/24 10:10:42;;;;;;;10.57;5.38;;;31.20;94.30;;;;;;5115312;28;20385;-65
2021/07/24 10:13:13;;;;;;;7.22;4.97;;;31.10;94.20;;;;;;5115461;28;20046;-64
2021/07/24 10:15:44;;;;;;;8.55;5.80;;;31.10;94.60;;;;;;5115491;28;20046;-62
2021/07/24 10:18:11;;;;;;;8.48;5.88;;;30.90;94.10;;;;;;5110037;28;20457;-63
2021/07/24 10:20:45;;;;;;;6.45;5.22;;;30.90;94.50;;;;;;5115516;28;20118;-64
2021/07/24 10:23:12;;;;;;;8.60;5.57;;;30.60;93.90;;;;;;5114842;28;20042;-63
2021/07/24 10:25:46;;;;;;;8.07;5.38;;;30.20;94.20;;;;;;5115061;28;20055;-64
2021/07/24 10:28:18;;;;;;;7.22;5.28;;;30.60;94.30;;;;;;5114990;28;20069;-63
2021/07/24 10:30:44;;;;;;;7.32;4.97;;;30.50;94.40;;;;;;5111051;28;20043;-63
2021/07/24 10:33:11;;;;;;;9.52;5.82;;;30.30;93.80;;;;;;5108782;28;20115;-62
2021/07/24 10:35:41;;;;;;;5.85;5.10;;;30.00;93.70;;;;;;5109560;28;20525;-62
2021/07/24 10:38:30;;;;;;;7.97;4.88;;;29.70;93.90;;;;;;5107311;28;20041;-62
2021/07/24 10:41:21;;;;;;;11.63;5.40;;;29.80;94.50;;;;;;5114308;28;20043;-63
2021/07/24 10:44:10;;;;;;;9.95;4.78;;;30.20;93.70;;;;;;5114776;28;20084;-62
2021/07/24 10:46:43;;;;;;;5.80;4.82;;;30.10;93.80;;;;;;5112609;28;20066;-62
2021/07/24 10:49:21;;;;;;;8.48;5.22;;;30.30;94.10;;;;;;5094614;28;20043;-65
2021/07/24 10:51:57;;;;;;;7.80;5.88;;;29.90;94.00;;;;;;5110607;28;20050;-62
2021/07/24 10:54:23;;;;;;;6.50;5.57;;;29.70;94.30;;;;;;5107643;28;20350;-62
2021/07/24 10:56:49;;;;;;;8.13;5.60;;;30.20;94.20;;;;;;5114769;28;20482;-65
2021/07/24 10:59:19;;;;;;;12.00;6.38;;;30.00;94.20;;;;;;5114904;28;20131;-65
2021/07/24 11:01:48;;;;;;;7.70;5.28;;;30.00;93.40;;;;;;5114639;28;20062;-62
2021/07/24 11:04:38;;;;;;;8.48;5.50;;;30.10;94.00;;;;;;5114472;28;20508;-63
2021/07/24 11:07:13;;;;;;;7.15;5.53;;;30.60;93.10;;;;;;5114429;28;20481;-62
2021/07/24 11:09:43;;;;;;;11.85;6.75;;;30.60;93.80;;;;;;5114342;28;20560;-63
2021/07/24 11:12:15;;;;;;;8.40;5.82;;;30.90;93.20;;;;;;5114448;28;20054;-62
2021/07/24 11:14:45;;;;;;;8.32;5.65;;;31.60;93.60;;;;;;5112108;28;20370;-63
2021/07/24 11:17:14;;;;;;;8.43;6.30;;;31.90;92.70;;;;;;5110755;28;20046;-61
2021/07/24 11:19:52;;;;;;;8.65;6.50;;;31.60;92.30;;;;;;5094196;28;20090;-66
2021/07/24 11:22:22;;;;;;;14.68;7.45;;;31.00;91.90;;;;;;5093912;28;20500;-65
2021/07/24 11:24:50;;;;;;;8.57;6.20;;;31.30;92.00;;;;;;5093955;28;20058;-61
2021/07/24 11:27:28;;;;;;;11.60;6.60;;;31.50;92.50;;;;;;5093699;28;20063;-62
2021/07/24 11:30:14;;;;;;;10.70;7.18;;;32.00;92.20;;;;;;5093618;28;20063;-64
2021/07/24 11:32:42;;;;;;;10.88;7.00;;;31.80;91.50;;;;;;5093389;28;20044;-65
2021/07/24 11:35:11;;;;;;;8.55;5.80;;;31.50;91.80;;;;;;5093794;28;20105;-63
2021/07/24 11:37:43;;;;;;;10.63;6.32;;;31.50;91.90;;;;;;5093702;28;20131;-63
2021/07/24 11:40:35;;;;;;;9.50;6.50;;;30.90;92.10;;;;;;5093759;28;20052;-64
2021/07/24 11:43:07;;;;;;;7.78;5.97;;;31.30;92.20;;;;;;5107820;28;20058;-62
2021/07/24 11:45:35;;;;;;;11.77;6.50;;;31.50;91.80;;;;;;5112703;28;20047;-64
2021/07/24 11:48:09;;;;;;;10.38;5.85;;;31.10;91.80;;;;;;5113687;28;20039;-62
2021/07/24 11:50:35;;;;;;;10.65;6.47;;;31.40;91.60;;;;;;5113572;28;20043;-64
2021/07/24 11:53:01;;;;;;;7.80;5.70;;;30.80;91.50;;;;;;5113629;28;20066;-63
2021/07/24 11:55:32;;;;;;;14.40;6.63;;;30.70;92.10;;;;;;5113809;28;20044;-64
2021/07/24 11:58:09;;;;;;;8.55;5.45;;;30.60;92.20;;;;;;5112722;28;20493;-63
2021/07/24 12:00:40;;;;;;;12.65;6.05;;;30.40;92.50;;;;;;5113168;28;20477;-63
2021/07/24 12:03:33;;;;;;;8.82;6.07;;;30.20;92.60;;;;;;5113336;28;20039;-66
2021/07/24 12:06:12;;;;;;;9.90;6.10;;;30.20;92.80;;;;;;5113289;28;20036;-64
2021/07/24 12:08:39;;;;;;;10.82;6.07;;;30.20;92.40;;;;;;5113309;28;20084;-63
2021/07/24 12:11:15;;;;;;;10.17;6.13;;;30.00;92.90;;;;;;5112700;28;20105;-65
2021/07/24 12:13:42;;;;;;;9.70;5.80;;;30.10;92.70;;;;;;5110130;28;20300;-62
2021/07/24 12:16:09;;;;;;;9.02;6.05;;;30.30;92.80;;;;;;5111019;28;20039;-65
2021/07/24 12:18:45;;;;;;;11.30;5.40;;;30.20;92.80;;;;;;5110047;28;20036;-64
2021/07/24 12:21:31;;;;;;;7.53;5.43;;;30.20;92.80;;;;;;5110127;28;20493;-63
2021/07/24 12:24:05;;;;;;;8.85;5.97;;;30.00;92.40;;;;;;5106117;28;20047;-65
2021/07/24 12:26:35;;;;;;;7.75;5.72;;;29.90;92.70;;;;;;5107245;28;20059;-64
2021/07/24 12:29:23;;;;;;;8.07;5.70;;;29.80;93.30;;;;;;5111789;28;20048;-63
2021/07/24 12:31:56;;;;;;;9.15;5.75;;;29.40;93.20;;;;;;5105976;28;20039;-62
2021/07/24 12:34:25;;;;;;;11.65;6.43;;;29.50;93.50;;;;;;5103890;28;20046;-64
2021/07/24 12:37:01;;;;;;;8.43;5.78;;;29.60;93.00;;;;;;5101558;28;20036;-62
2021/07/24 12:39:36;;;;;;;7.72;5.93;;;29.60;94.00;;;;;;5103714;28;20085;-65
2021/07/24 12:42:02;;;;;;;9.80;5.80;;;29.50;93.20;;;;;;5106090;28;20490;-65
2021/07/24 12:44:30;;;;;;;11.43;6.18;;;29.30;93.50;;;;;;5107408;28;20028;-64